AirNav   Air Wisconsin pilot careers
 
 1344 users online  

CA84 Torrey Pines Gliderport
San Diego, California, USA

GOING TO SAN DIEGO?


FAA INFORMATION EFFECTIVE 01 FEBRUARY 2018

Location

FAA Identifier: CA84
Lat/Long: 32-53-23.0000N / 117-14-49.0000W
32-53.383333N / 117-14.816667W
32.8897222 / -117.2469444
(estimated)
Elevation: 372 ft. / 113 m (estimated)
Variation: 13E (1985)
From city: 11 miles NW of SAN DIEGO, CA
Time zone: UTC -8 (UTC -7 during Daylight Saving Time)
Zip code: 92037

Gliderport Operations

Gliderport use: Private use. Permission required prior to landing
Activation date: 11/1961
Control tower: no
ARTCC: LOS ANGELES CENTER
FSS: SAN DIEGO FLIGHT SERVICE STATION
Attendance: UNATNDD
Wind indicator: no
Segmented circle: no

Gliderport Communications

WX ASOS at MYF (7 nm SE): PHONE 858-576-4337
WX ASOS at SAN (10 nm S): PHONE 619-296-8934
WX AWOS-3P at SEE (14 nm E): 125.45 (619-449-1228)
WX ASOS at CRQ (14 nm N): PHONE 760-930-0864
WX ASOS at RNM (19 nm NE): 132.025 (760-789-0736)

Nearby radio navigation aids

VOR radial/distance  VOR name  Freq  Var
MZBr335/6.5MISSION BAY VORTAC117.8015E
PGYr307/21.5POGGI VORTAC109.8014E
OCNr143/22.7OCEANSIDE VORTAC115.3015E
TIJr311/25.7TIJUANA VOR/DME116.5014E
JLIr231/36.5JULIAN VORTAC114.0015E

Gliderport Services

Airframe service: NONE
Powerplant service: NONE

Runway Information

Runway 9/27

Dimensions: 1500 x 30 ft. / 457 x 9 m
Surface: asphalt
RUNWAY 9  RUNWAY 27
Traffic pattern: leftleft
Obstructions: nonetrees, 100 ft. from runway

Gliderport Ownership and Management from official FAA records

Ownership: Publicly-owned
Owner: CITY OF SAN DIEGO
Manager: JIM FROST
4740 HARBINSON AVE
LA MESA, CA 91941
Phone 619-461-9614
WORK PHONE 619-535-9505 EXT 1585

Additional Remarks

GLIDER PORT IS LEASED FM CITY TO THE ASSOCD GLIDER CLUB OF SOUTHERN CALIF FOR STUDENT TRAINING & RIDGE SOARING.
ALL ACFT ARE TRAILERED GLIDERS.
ROLLING RWY .6 PERCENT GRADIENT.
EXTENSIVE HANG GLIDER OPERATIONS ON WEEKENDS AND WEEKDAYS.

Instrument Procedures

There are no published instrument procedures at CA84.

Some nearby airports with instrument procedures:

KNKX - Miramar MCAS (Joe Foss Field) Airport (5 nm E)
KMYF - Montgomery-Gibbs Executive Airport (7 nm SE)
KSAN - San Diego International Airport (10 nm S)
KNZY - North Island Naval Air Station (Halsey Field) (12 nm S)
KSEE - Gillespie Field Airport (14 nm E)
KCRQ - Mc Clellan-Palomar Airport (14 nm N)
KRNM - Ramona Airport (19 nm NE)
 
Loc | Ops | Rwys | IFR | FBO | Links
Com | Nav | Svcs | Stats | Notes

AirNav Hotels Sweepstakes
 
Area around CA84 (Torrey Pines Gliderport)
 
Road maps at: MapQuest Bing Google
 
Aerial photo
WARNING: Photo may not be current or correct
Aerial photo of CA84 (Torrey Pines Gliderport)
Photo by Doug Fronius
Photo taken 13-Mar-2004
from a 1942 Schweizer TG-2 sailplane.

Do you have a better or more recent aerial photo of Torrey Pines Gliderport that you would like to share? If so, please send us your photo.

 
Sectional chart

 
Airport distance calculator
Flying to Torrey Pines Gliderport? Find the distance to fly.

From to CA84

Sunrise and sunset
Times for 22-Feb-2018
 Local
(UTC-8)
 Zulu
(UTC)
Morning civil twilight06:0114:01
Sunrise06:2614:26
Sunset17:3901:39
Evening civil twilight18:0402:04

Current date and time
Zulu (UTC)  22-Feb-2018 22:19:26
Local (UTC-8)  22-Feb-2018 14:19:26
 
METAR
KNKX 
6nm E 
222155Z 23014KT 10SM FEW025 OVC036 14/08 A3021 RMK AO2 SLP227 T01440083 $
KMYF 
7nm SE 
222153Z 25013KT 9SM -RA BKN050 OVC070 13/08 A3022 RMK AO2 RAB40 SLP231 P0000 T01280083
KSAN 
10nm S 
222151Z 23010G24KT 8SM -RA BKN028 BKN033 OVC045 13/10 A3024 RMK AO2 RAB30 SLP241 VIS E-SE 3 P0002 T01280100
KNZY 
11nm S 
222152Z 22011KT 5SM -RA BR SCT023 BKN043 BKN055 13/11 A3022 RMK AO2 RAB33 SLP232 VIS W-SW 3 T01280111 PNO $
KCRQ 
15nm N 
222153Z AUTO 27006G15KT 10SM FEW033 BKN065 13/07 A3020 RMK AO2 RAB2058E09 SLP226 P0000 T01330067
KSEE 
15nm E 
222147Z 24011KT 10SM BKN055 OVC070 14/05 A3020
KRNM 
19nm NE 
222153Z 27011KT 10SM SCT027 BKN034 BKN060 12/05 A3018 RMK AO2 SLP223 T01220050
TAF
KNKX 
6nm E 
2215/2315 VRB05KT 9999 VCSH BKN050 620503 QNH3019INS BECMG 2218/2220 25010KT 9999 VCSH SCT025 BKN040 620404 QNH3017INS TEMPO 2220/2302 -SHRA SCT025 OVC040 FM230330 25008KT 9999 VCSH SCT030 BKN050 620503 QNH3018INS BECMG 2307/2309 25008KT 9999 NSW BKN050 620503 QNH3020INS TEMPO 2309/2315 25012G20KT T07/2215Z T16/2222Z
KSAN 
10nm S 
221740Z 2218/2324 16007KT P6SM SCT035 FM222000 22010KT P6SM SCT035 FM230200 27006KT P6SM VCSH SCT025 BKN035 FM231000 28010G18KT P6SM VCSH SCT035 BKN050 FM231900 28012G20KT P6SM SCT035 SCT050
KNZY 
11nm S 
2215/2315 VRB06KT VCSH 9999 SCT030 SCT045 521809 522709 523603 QNH3018INS TEMPO 2215/2220 9000 SHRA BKN025 BKN045 FM222000 26011KT 9999 VCSH SCT025 BKN040 520009 520906 521809 522709 523603 QNH3010INS TEMPO 2221/2303 9000 -SHRA BKN025 BKN040 FM230300 30011KT 9999 VCSH SCT025 BKN040 520009 520906 521809 522709 523603 QNH3012INS TEMPO 2309/2315 29014G24KT 8000 SHRA BKN025 BKN045 T16/2221Z T10/2312Z FS30022
KCRQ 
15nm N 
221740Z 2218/2318 18007KT P6SM SCT035 FM221900 24011KT P6SM SCT035 FM230200 27006KT P6SM VCSH SCT035 BKN050 FM230900 28012G18KT P6SM VCSH SCT035 BKN050
NOTAMs
Click for the latest NOTAMs
NOTAMs are issued by the DoD/FAA and will open in a separate window not controlled by AirNav.

 

 
 

Would you like to see your business listed on this page?

 If your business provides an interesting product or service to pilots, flight crews, aircraft, or users of the Torrey Pines Gliderport, you should consider listing it here.  To start the listing process, click on the button below
 
Add a business
 

Other Pages about Torrey Pines Gliderport

www.agcsc.org/torrey_pines_info.html
 
Update a link
 
Copyright © AirNav, LLC. All rights reserved. Privacy Policy  Contact